sensor_id;sensor_type;location;lat;lon;timestamp;P1;durP1;ratioP1;P2;durP2;ratioP2
16866;SDS011;8550;52.596;13.320;2024-03-02T00:03:31;22.35;;;12.68;;
16866;SDS011;8550;52.596;13.320;2024-03-02T00:08:33;31.13;;;14.65;;
16866;SDS011;8550;52.596;13.320;2024-03-02T00:13:35;26.00;;;15.27;;
16866;SDS011;8550;52.596;13.320;2024-03-02T00:18:38;26.33;;;14.60;;
16866;SDS011;8550;52.596;13.320;2024-03-02T00:23:40;24.60;;;12.77;;
16866;SDS011;8550;52.596;13.320;2024-03-02T00:28:42;26.43;;;13.30;;
16866;SDS011;8550;52.596;13.320;2024-03-02T00:33:47;28.65;;;11.55;;
16866;SDS011;8550;52.596;13.320;2024-03-02T00:38:50;31.40;;;14.70;;
16866;SDS011;8550;52.596;13.320;2024-03-02T00:43:57;28.80;;;14.77;;
16866;SDS011;8550;52.596;13.320;2024-03-02T00:49:02;29.10;;;14.80;;
16866;SDS011;8550;52.596;13.320;2024-03-02T00:54:05;28.42;;;14.82;;
16866;SDS011;8550;52.596;13.320;2024-03-02T00:59:09;27.42;;;13.70;;
16866;SDS011;8550;52.596;13.320;2024-03-02T01:04:13;28.03;;;15.20;;
16866;SDS011;8550;52.596;13.320;2024-03-02T01:09:15;27.95;;;14.45;;
16866;SDS011;8550;52.596;13.320;2024-03-02T01:14:17;35.58;;;15.32;;
16866;SDS011;8550;52.596;13.320;2024-03-02T01:19:21;24.00;;;12.03;;
16866;SDS011;8550;52.596;13.320;2024-03-02T01:24:23;29.98;;;14.35;;
16866;SDS011;8550;52.596;13.320;2024-03-02T01:29:25;25.00;;;13.85;;
16866;SDS011;8550;52.596;13.320;2024-03-02T01:34:28;26.00;;;14.13;;
16866;SDS011;8550;52.596;13.320;2024-03-02T01:39:30;21.57;;;12.17;;
16866;SDS011;8550;52.596;13.320;2024-03-02T01:44:32;24.80;;;13.02;;
16866;SDS011;8550;52.596;13.320;2024-03-02T01:49:35;21.92;;;12.43;;
16866;SDS011;8550;52.596;13.320;2024-03-02T01:54:39;26.20;;;12.47;;
16866;SDS011;8550;52.596;13.320;2024-03-02T01:59:41;27.15;;;13.40;;
16866;SDS011;8550;52.596;13.320;2024-03-02T02:04:44;28.48;;;13.30;;
16866;SDS011;8550;52.596;13.320;2024-03-02T02:09:46;25.70;;;13.23;;
16866;SDS011;8550;52.596;13.320;2024-03-02T02:14:48;29.30;;;12.77;;
16866;SDS011;8550;52.596;13.320;2024-03-02T02:19:51;29.02;;;13.90;;
16866;SDS011;8550;52.596;13.320;2024-03-02T02:24:55;26.67;;;12.97;;
16866;SDS011;8550;52.596;13.320;2024-03-02T02:29:57;24.97;;;11.70;;
16866;SDS011;8550;52.596;13.320;2024-03-02T02:34:59;33.25;;;14.35;;
16866;SDS011;8550;52.596;13.320;2024-03-02T02:40:03;25.20;;;14.23;;
16866;SDS011;8550;52.596;13.320;2024-03-02T02:45:06;22.77;;;11.83;;
16866;SDS011;8550;52.596;13.320;2024-03-02T02:50:09;26.20;;;12.88;;
16866;SDS011;8550;52.596;13.320;2024-03-02T02:55:13;33.08;;;13.65;;
16866;SDS011;8550;52.596;13.320;2024-03-02T03:00:16;25.63;;;12.63;;
16866;SDS011;8550;52.596;13.320;2024-03-02T03:05:20;25.13;;;13.60;;
16866;SDS011;8550;52.596;13.320;2024-03-02T03:10:23;25.05;;;13.48;;
16866;SDS011;8550;52.596;13.320;2024-03-02T03:15:27;28.57;;;13.63;;
16866;SDS011;8550;52.596;13.320;2024-03-02T03:20:29;33.63;;;13.77;;
16866;SDS011;8550;52.596;13.320;2024-03-02T03:25:32;26.27;;;13.65;;
16866;SDS011;8550;52.596;13.320;2024-03-02T03:30:34;35.47;;;15.90;;
16866;SDS011;8550;52.596;13.320;2024-03-02T03:35:36;30.50;;;12.23;;
16866;SDS011;8550;52.596;13.320;2024-03-02T03:40:40;27.15;;;13.90;;
16866;SDS011;8550;52.596;13.320;2024-03-02T03:45:42;28.50;;;14.85;;
16866;SDS011;8550;52.596;13.320;2024-03-02T03:50:44;25.53;;;13.80;;
16866;SDS011;8550;52.596;13.320;2024-03-02T03:55:47;30.58;;;14.13;;
16866;SDS011;8550;52.596;13.320;2024-03-02T04:00:49;30.23;;;14.15;;
16866;SDS011;8550;52.596;13.320;2024-03-02T04:05:51;31.73;;;13.97;;
16866;SDS011;8550;52.596;13.320;2024-03-02T04:10:55;30.67;;;14.13;;
16866;SDS011;8550;52.596;13.320;2024-03-02T04:15:57;26.15;;;13.40;;
16866;SDS011;8550;52.596;13.320;2024-03-02T04:20:59;33.85;;;14.35;;
16866;SDS011;8550;52.596;13.320;2024-03-02T04:26:02;31.43;;;14.13;;
16866;SDS011;8550;52.596;13.320;2024-03-02T04:31:04;28.75;;;13.85;;
16866;SDS011;8550;52.596;13.320;2024-03-02T04:36:06;24.52;;;13.38;;
16866;SDS011;8550;52.596;13.320;2024-03-02T04:41:11;28.77;;;14.37;;
16866;SDS011;8550;52.596;13.320;2024-03-02T04:46:12;30.30;;;14.57;;
16866;SDS011;8550;52.596;13.320;2024-03-02T04:51:15;29.27;;;14.23;;
16866;SDS011;8550;52.596;13.320;2024-03-02T04:56:18;22.17;;;13.90;;
16866;SDS011;8550;52.596;13.320;2024-03-02T05:01:39;25.87;;;13.87;;
16866;SDS011;8550;52.596;13.320;2024-03-02T05:06:41;28.63;;;13.68;;
16866;SDS011;8550;52.596;13.320;2024-03-02T05:11:44;29.25;;;13.35;;
16866;SDS011;8550;52.596;13.320;2024-03-02T05:17:06;19.60;;;11.27;;
16866;SDS011;8550;52.596;13.320;2024-03-02T05:22:08;29.60;;;14.15;;
16866;SDS011;8550;52.596;13.320;2024-03-02T05:27:11;26.90;;;12.63;;
16866;SDS011;8550;52.596;13.320;2024-03-02T05:32:13;23.30;;;13.17;;
16866;SDS011;8550;52.596;13.320;2024-03-02T05:37:14;28.27;;;12.48;;
16866;SDS011;8550;52.596;13.320;2024-03-02T05:42:18;29.63;;;13.25;;
16866;SDS011;8550;52.596;13.320;2024-03-02T05:47:20;27.10;;;12.97;;
16866;SDS011;8550;52.596;13.320;2024-03-02T05:52:21;24.43;;;14.03;;
16866;SDS011;8550;52.596;13.320;2024-03-02T05:57:25;26.30;;;14.85;;
16866;SDS011;8550;52.596;13.320;2024-03-02T06:02:49;33.38;;;16.90;;
16866;SDS011;8550;52.596;13.320;2024-03-02T06:07:51;28.07;;;13.87;;
16866;SDS011;8550;52.596;13.320;2024-03-02T06:12:54;39.08;;;14.70;;
16866;SDS011;8550;52.596;13.320;2024-03-02T06:17:56;30.17;;;15.00;;
16866;SDS011;8550;52.596;13.320;2024-03-02T06:22:58;28.97;;;13.13;;
16866;SDS011;8550;52.596;13.320;2024-03-02T06:28:01;31.25;;;15.25;;
16866;SDS011;8550;52.596;13.320;2024-03-02T06:33:04;27.52;;;14.63;;
16866;SDS011;8550;52.596;13.320;2024-03-02T06:38:06;23.60;;;14.10;;
16866;SDS011;8550;52.596;13.320;2024-03-02T06:43:09;33.47;;;16.80;;
16866;SDS011;8550;52.596;13.320;2024-03-02T06:48:11;32.55;;;15.82;;
16866;SDS011;8550;52.596;13.320;2024-03-02T06:53:15;27.98;;;14.60;;
16866;SDS011;8550;52.596;13.320;2024-03-02T06:58:19;33.00;;;13.03;;
16866;SDS011;8550;52.596;13.320;2024-03-02T07:03:21;27.80;;;14.13;;
16866;SDS011;8550;52.596;13.320;2024-03-02T07:08:23;32.05;;;15.00;;
16866;SDS011;8550;52.596;13.320;2024-03-02T07:13:26;30.17;;;15.33;;
16866;SDS011;8550;52.596;13.320;2024-03-02T07:18:28;28.35;;;14.60;;
16866;SDS011;8550;52.596;13.320;2024-03-02T07:23:30;29.70;;;13.82;;
16866;SDS011;8550;52.596;13.320;2024-03-02T07:28:34;29.53;;;14.80;;
16866;SDS011;8550;52.596;13.320;2024-03-02T07:33:36;27.70;;;13.57;;
16866;SDS011;8550;52.596;13.320;2024-03-02T07:38:37;30.73;;;14.60;;
16866;SDS011;8550;52.596;13.320;2024-03-02T07:43:42;29.73;;;13.23;;
16866;SDS011;8550;52.596;13.320;2024-03-02T07:48:44;32.60;;;14.83;;
16866;SDS011;8550;52.596;13.320;2024-03-02T07:53:46;34.15;;;13.82;;
16866;SDS011;8550;52.596;13.320;2024-03-02T07:58:49;30.98;;;13.77;;
16866;SDS011;8550;52.596;13.320;2024-03-02T08:03:51;32.47;;;13.80;;
16866;SDS011;8550;52.596;13.320;2024-03-02T08:08:53;29.95;;;13.90;;
16866;SDS011;8550;52.596;13.320;2024-03-02T08:13:57;27.65;;;13.88;;
16866;SDS011;8550;52.596;13.320;2024-03-02T08:18:59;29.00;;;13.93;;
16866;SDS011;8550;52.596;13.320;2024-03-02T08:24:01;27.63;;;14.07;;
16866;SDS011;8550;52.596;13.320;2024-03-02T08:29:05;23.75;;;11.85;;
16866;SDS011;8550;52.596;13.320;2024-03-02T08:34:07;32.22;;;14.27;;
16866;SDS011;8550;52.596;13.320;2024-03-02T08:39:10;31.23;;;14.47;;
16866;SDS011;8550;52.596;13.320;2024-03-02T08:44:17;27.55;;;13.77;;
16866;SDS011;8550;52.596;13.320;2024-03-02T08:49:19;23.73;;;12.80;;
16866;SDS011;8550;52.596;13.320;2024-03-02T08:54:21;28.80;;;13.43;;
16866;SDS011;8550;52.596;13.320;2024-03-02T08:59:24;31.27;;;14.73;;
16866;SDS011;8550;52.596;13.320;2024-03-02T09:04:28;31.92;;;14.35;;
16866;SDS011;8550;52.596;13.320;2024-03-02T09:09:30;29.13;;;14.33;;
16866;SDS011;8550;52.596;13.320;2024-03-02T09:14:34;35.23;;;14.43;;
16866;SDS011;8550;52.596;13.320;2024-03-02T09:19:37;29.27;;;14.20;;
16866;SDS011;8550;52.596;13.320;2024-03-02T09:24:39;32.83;;;13.73;;
16866;SDS011;8550;52.596;13.320;2024-03-02T09:29:43;26.07;;;14.50;;
16866;SDS011;8550;52.596;13.320;2024-03-02T09:34:45;34.50;;;12.75;;
16866;SDS011;8550;52.596;13.320;2024-03-02T09:39:48;31.45;;;13.68;;
16866;SDS011;8550;52.596;13.320;2024-03-02T09:44:52;30.77;;;12.80;;
16866;SDS011;8550;52.596;13.320;2024-03-02T09:49:54;24.83;;;11.85;;
16866;SDS011;8550;52.596;13.320;2024-03-02T09:54:56;27.65;;;13.13;;
16866;SDS011;8550;52.596;13.320;2024-03-02T10:00:00;20.57;;;11.00;;
16866;SDS011;8550;52.596;13.320;2024-03-02T10:05:02;23.87;;;11.83;;
16866;SDS011;8550;52.596;13.320;2024-03-02T10:10:14;27.88;;;12.88;;
16866;SDS011;8550;52.596;13.320;2024-03-02T10:15:24;30.45;;;13.40;;
16866;SDS011;8550;52.596;13.320;2024-03-02T10:20:26;27.87;;;12.30;;
16866;SDS011;8550;52.596;13.320;2024-03-02T10:25:30;24.15;;;12.13;;
16866;SDS011;8550;52.596;13.320;2024-03-02T10:30:34;24.10;;;10.90;;
16866;SDS011;8550;52.596;13.320;2024-03-02T10:35:40;22.83;;;12.07;;
16866;SDS011;8550;52.596;13.320;2024-03-02T10:40:46;24.25;;;11.40;;
16866;SDS011;8550;52.596;13.320;2024-03-02T10:45:50;22.45;;;10.73;;
16866;SDS011;8550;52.596;13.320;2024-03-02T10:50:55;22.03;;;10.30;;
16866;SDS011;8550;52.596;13.320;2024-03-02T10:56:01;22.30;;;9.43;;
16866;SDS011;8550;52.596;13.320;2024-03-02T11:01:09;18.70;;;8.98;;
16866;SDS011;8550;52.596;13.320;2024-03-02T11:06:13;19.15;;;9.10;;
16866;SDS011;8550;52.596;13.320;2024-03-02T11:11:18;15.07;;;7.87;;
16866;SDS011;8550;52.596;13.320;2024-03-02T11:16:26;18.83;;;9.02;;
16866;SDS011;8550;52.596;13.320;2024-03-02T11:21:35;18.67;;;8.38;;
16866;SDS011;8550;52.596;13.320;2024-03-02T11:26:38;19.93;;;9.17;;
16866;SDS011;8550;52.596;13.320;2024-03-02T11:31:58;18.55;;;8.27;;
16866;SDS011;8550;52.596;13.320;2024-03-02T11:37:01;19.80;;;9.68;;
16866;SDS011;8550;52.596;13.320;2024-03-02T11:42:05;22.10;;;9.00;;
16866;SDS011;8550;52.596;13.320;2024-03-02T11:47:11;15.27;;;7.07;;
16866;SDS011;8550;52.596;13.320;2024-03-02T11:52:17;17.00;;;8.27;;
16866;SDS011;8550;52.596;13.320;2024-03-02T11:57:20;20.85;;;8.23;;
16866;SDS011;8550;52.596;13.320;2024-03-02T12:02:24;29.40;;;13.13;;
16866;SDS011;8550;52.596;13.320;2024-03-02T12:07:26;15.35;;;8.07;;
16866;SDS011;8550;52.596;13.320;2024-03-02T12:12:28;16.75;;;8.30;;
16866;SDS011;8550;52.596;13.320;2024-03-02T12:17:31;16.80;;;7.87;;
16866;SDS011;8550;52.596;13.320;2024-03-02T12:22:33;17.52;;;7.03;;
16866;SDS011;8550;52.596;13.320;2024-03-02T12:27:35;14.82;;;7.47;;
16866;SDS011;8550;52.596;13.320;2024-03-02T12:32:39;16.00;;;7.37;;
16866;SDS011;8550;52.596;13.320;2024-03-02T12:37:42;12.07;;;5.90;;
16866;SDS011;8550;52.596;13.320;2024-03-02T12:42:45;14.82;;;7.25;;
16866;SDS011;8550;52.596;13.320;2024-03-02T12:47:49;14.50;;;6.75;;
16866;SDS011;8550;52.596;13.320;2024-03-02T12:52:53;15.97;;;7.23;;
16866;SDS011;8550;52.596;13.320;2024-03-02T12:57:55;15.60;;;8.05;;
16866;SDS011;8550;52.596;13.320;2024-03-02T13:03:00;16.10;;;7.15;;
16866;SDS011;8550;52.596;13.320;2024-03-02T13:08:04;13.50;;;6.27;;
16866;SDS011;8550;52.596;13.320;2024-03-02T13:13:07;15.55;;;6.88;;
16866;SDS011;8550;52.596;13.320;2024-03-02T13:18:11;18.95;;;7.97;;
16866;SDS011;8550;52.596;13.320;2024-03-02T13:23:13;13.73;;;6.80;;
16866;SDS011;8550;52.596;13.320;2024-03-02T13:28:15;17.77;;;7.33;;
16866;SDS011;8550;52.596;13.320;2024-03-02T13:33:19;13.90;;;7.50;;
16866;SDS011;8550;52.596;13.320;2024-03-02T13:38:23;16.27;;;7.60;;
16866;SDS011;8550;52.596;13.320;2024-03-02T13:43:25;18.40;;;7.77;;
16866;SDS011;8550;52.596;13.320;2024-03-02T13:48:28;17.02;;;8.88;;
16866;SDS011;8550;52.596;13.320;2024-03-02T13:53:30;16.85;;;9.23;;
16866;SDS011;8550;52.596;13.320;2024-03-02T13:58:33;16.93;;;8.20;;
16866;SDS011;8550;52.596;13.320;2024-03-02T14:03:36;13.70;;;6.32;;
16866;SDS011;8550;52.596;13.320;2024-03-02T14:08:38;14.80;;;5.75;;
16866;SDS011;8550;52.596;13.320;2024-03-02T14:13:40;12.70;;;5.93;;
16866;SDS011;8550;52.596;13.320;2024-03-02T14:18:45;12.90;;;5.13;;
16866;SDS011;8550;52.596;13.320;2024-03-02T14:23:47;11.80;;;5.10;;
16866;SDS011;8550;52.596;13.320;2024-03-02T14:28:50;12.70;;;5.45;;
16866;SDS011;8550;52.596;13.320;2024-03-02T14:33:54;9.37;;;4.33;;
16866;SDS011;8550;52.596;13.320;2024-03-02T14:38:56;10.65;;;4.53;;
16866;SDS011;8550;52.596;13.320;2024-03-02T14:43:58;9.45;;;4.05;;
16866;SDS011;8550;52.596;13.320;2024-03-02T14:49:01;10.87;;;4.03;;
16866;SDS011;8550;52.596;13.320;2024-03-02T14:54:03;9.05;;;4.45;;
16866;SDS011;8550;52.596;13.320;2024-03-02T14:59:05;10.55;;;4.13;;
16866;SDS011;8550;52.596;13.320;2024-03-02T15:04:08;8.17;;;3.83;;
16866;SDS011;8550;52.596;13.320;2024-03-02T15:09:11;10.60;;;4.17;;
16866;SDS011;8550;52.596;13.320;2024-03-02T15:14:14;10.02;;;4.72;;
16866;SDS011;8550;52.596;13.320;2024-03-02T15:19:17;9.07;;;3.75;;
16866;SDS011;8550;52.596;13.320;2024-03-02T15:24:19;10.70;;;3.67;;
16866;SDS011;8550;52.596;13.320;2024-03-02T15:29:21;10.43;;;4.40;;
16866;SDS011;8550;52.596;13.320;2024-03-02T15:34:30;10.23;;;4.57;;
16866;SDS011;8550;52.596;13.320;2024-03-02T15:39:32;11.07;;;5.00;;
16866;SDS011;8550;52.596;13.320;2024-03-02T15:44:34;9.48;;;4.70;;
16866;SDS011;8550;52.596;13.320;2024-03-02T15:49:38;100.05;;;10.85;;
16866;SDS011;8550;52.596;13.320;2024-03-02T15:54:40;69.53;;;26.87;;
16866;SDS011;8550;52.596;13.320;2024-03-02T15:59:43;10.47;;;5.17;;
16866;SDS011;8550;52.596;13.320;2024-03-02T16:04:47;14.68;;;5.45;;
16866;SDS011;8550;52.596;13.320;2024-03-02T16:09:49;12.50;;;4.75;;
16866;SDS011;8550;52.596;13.320;2024-03-02T16:14:50;7.87;;;3.97;;
16866;SDS011;8550;52.596;13.320;2024-03-02T16:19:54;11.80;;;3.33;;
16866;SDS011;8550;52.596;13.320;2024-03-02T16:24:57;10.40;;;4.63;;
16866;SDS011;8550;52.596;13.320;2024-03-02T16:29:59;21.90;;;5.93;;
16866;SDS011;8550;52.596;13.320;2024-03-02T16:35:03;14.43;;;3.85;;
16866;SDS011;8550;52.596;13.320;2024-03-02T16:45:13;10.53;;;3.63;;
16866;SDS011;8550;52.596;13.320;2024-03-02T16:50:16;8.77;;;4.00;;
16866;SDS011;8550;52.596;13.320;2024-03-02T16:55:18;30.83;;;7.88;;
16866;SDS011;8550;52.596;13.320;2024-03-02T17:00:20;11.98;;;4.10;;
16866;SDS011;8550;52.596;13.320;2024-03-02T17:05:24;10.70;;;4.07;;
16866;SDS011;8550;52.596;13.320;2024-03-02T17:10:26;8.60;;;3.53;;
16866;SDS011;8550;52.596;13.320;2024-03-02T17:15:28;12.05;;;4.45;;
16866;SDS011;8550;52.596;13.320;2024-03-02T17:20:31;11.13;;;4.53;;
16866;SDS011;8550;52.596;13.320;2024-03-02T17:25:35;12.65;;;4.70;;
16866;SDS011;8550;52.596;13.320;2024-03-02T17:30:37;17.00;;;6.90;;
16866;SDS011;8550;52.596;13.320;2024-03-02T17:35:40;13.50;;;5.63;;
16866;SDS011;8550;52.596;13.320;2024-03-02T17:40:45;9.53;;;4.40;;
16866;SDS011;8550;52.596;13.320;2024-03-02T17:45:47;10.00;;;4.50;;
16866;SDS011;8550;52.596;13.320;2024-03-02T17:50:51;9.95;;;3.90;;
16866;SDS011;8550;52.596;13.320;2024-03-02T17:55:53;12.03;;;4.90;;
16866;SDS011;8550;52.596;13.320;2024-03-02T18:00:55;11.95;;;4.80;;
16866;SDS011;8550;52.596;13.320;2024-03-02T18:05:58;10.10;;;4.28;;
16866;SDS011;8550;52.596;13.320;2024-03-02T18:11:03;13.37;;;5.83;;
16866;SDS011;8550;52.596;13.320;2024-03-02T18:16:06;10.07;;;4.88;;
16866;SDS011;8550;52.596;13.320;2024-03-02T18:21:09;15.32;;;7.80;;
16866;SDS011;8550;52.596;13.320;2024-03-02T18:26:12;12.77;;;5.13;;
16866;SDS011;8550;52.596;13.320;2024-03-02T18:31:14;20.70;;;5.20;;
16866;SDS011;8550;52.596;13.320;2024-03-02T18:36:21;11.27;;;5.22;;
16866;SDS011;8550;52.596;13.320;2024-03-02T18:41:23;11.13;;;4.88;;
16866;SDS011;8550;52.596;13.320;2024-03-02T18:46:26;13.30;;;5.20;;
16866;SDS011;8550;52.596;13.320;2024-03-02T18:51:29;12.95;;;6.05;;
16866;SDS011;8550;52.596;13.320;2024-03-02T18:56:31;12.98;;;5.95;;
16866;SDS011;8550;52.596;13.320;2024-03-02T19:01:33;10.23;;;4.60;;
16866;SDS011;8550;52.596;13.320;2024-03-02T19:06:36;11.25;;;5.57;;
16866;SDS011;8550;52.596;13.320;2024-03-02T19:11:38;16.77;;;6.50;;
16866;SDS011;8550;52.596;13.320;2024-03-02T19:16:40;10.97;;;5.27;;
16866;SDS011;8550;52.596;13.320;2024-03-02T19:21:45;14.93;;;5.80;;
16866;SDS011;8550;52.596;13.320;2024-03-02T19:26:47;14.85;;;6.97;;
16866;SDS011;8550;52.596;13.320;2024-03-02T19:31:49;15.15;;;7.40;;
16866;SDS011;8550;52.596;13.320;2024-03-02T19:36:52;16.13;;;6.90;;
16866;SDS011;8550;52.596;13.320;2024-03-02T19:41:57;13.48;;;6.18;;
16866;SDS011;8550;52.596;13.320;2024-03-02T19:47:00;12.23;;;5.88;;
16866;SDS011;8550;52.596;13.320;2024-03-02T19:52:03;17.20;;;8.10;;
16866;SDS011;8550;52.596;13.320;2024-03-02T19:57:09;28.00;;;13.13;;
16866;SDS011;8550;52.596;13.320;2024-03-02T20:02:11;18.95;;;7.60;;
16866;SDS011;8550;52.596;13.320;2024-03-02T20:07:14;17.50;;;7.63;;
16866;SDS011;8550;52.596;13.320;2024-03-02T20:12:16;18.10;;;8.20;;
16866;SDS011;8550;52.596;13.320;2024-03-02T20:17:18;16.33;;;7.53;;
16866;SDS011;8550;52.596;13.320;2024-03-02T20:22:23;15.88;;;8.02;;
16866;SDS011;8550;52.596;13.320;2024-03-02T20:27:25;17.13;;;8.13;;
16866;SDS011;8550;52.596;13.320;2024-03-02T20:32:27;15.82;;;8.52;;
16866;SDS011;8550;52.596;13.320;2024-03-02T20:37:30;17.70;;;7.88;;
16866;SDS011;8550;52.596;13.320;2024-03-02T20:42:32;39.83;;;18.33;;
16866;SDS011;8550;52.596;13.320;2024-03-02T20:47:36;27.98;;;10.32;;
16866;SDS011;8550;52.596;13.320;2024-03-02T20:52:39;19.85;;;9.65;;
16866;SDS011;8550;52.596;13.320;2024-03-02T20:57:43;19.20;;;8.90;;
16866;SDS011;8550;52.596;13.320;2024-03-02T21:02:45;59.03;;;25.77;;
16866;SDS011;8550;52.596;13.320;2024-03-02T21:07:49;19.05;;;11.65;;
16866;SDS011;8550;52.596;13.320;2024-03-02T21:12:51;19.83;;;9.18;;
16866;SDS011;8550;52.596;13.320;2024-03-02T21:17:54;23.13;;;10.70;;
16866;SDS011;8550;52.596;13.320;2024-03-02T21:22:57;20.73;;;10.32;;
16866;SDS011;8550;52.596;13.320;2024-03-02T21:27:59;19.52;;;9.90;;
16866;SDS011;8550;52.596;13.320;2024-03-02T21:33:01;18.77;;;10.07;;
16866;SDS011;8550;52.596;13.320;2024-03-02T21:38:05;16.20;;;8.80;;
16866;SDS011;8550;52.596;13.320;2024-03-02T21:43:07;24.85;;;10.63;;
16866;SDS011;8550;52.596;13.320;2024-03-02T21:48:09;18.97;;;9.23;;
16866;SDS011;8550;52.596;13.320;2024-03-02T21:53:12;21.83;;;10.60;;
16866;SDS011;8550;52.596;13.320;2024-03-02T21:58:15;20.77;;;10.35;;
16866;SDS011;8550;52.596;13.320;2024-03-02T22:03:17;22.98;;;11.23;;
16866;SDS011;8550;52.596;13.320;2024-03-02T22:08:20;21.40;;;9.77;;
16866;SDS011;8550;52.596;13.320;2024-03-02T22:13:22;18.40;;;9.38;;
16866;SDS011;8550;52.596;13.320;2024-03-02T22:18:24;17.63;;;10.10;;
16866;SDS011;8550;52.596;13.320;2024-03-02T22:23:28;17.23;;;8.93;;
16866;SDS011;8550;52.596;13.320;2024-03-02T22:28:31;24.10;;;9.60;;
16866;SDS011;8550;52.596;13.320;2024-03-02T22:33:33;18.00;;;9.60;;
16866;SDS011;8550;52.596;13.320;2024-03-02T22:38:37;19.47;;;10.27;;
16866;SDS011;8550;52.596;13.320;2024-03-02T22:43:38;24.67;;;10.53;;
16866;SDS011;8550;52.596;13.320;2024-03-02T22:48:40;24.40;;;10.18;;
16866;SDS011;8550;52.596;13.320;2024-03-02T22:53:44;20.63;;;10.90;;
16866;SDS011;8550;52.596;13.320;2024-03-02T22:58:46;17.90;;;9.77;;
16866;SDS011;8550;52.596;13.320;2024-03-02T23:03:49;20.17;;;10.27;;
16866;SDS011;8550;52.596;13.320;2024-03-02T23:08:52;22.38;;;10.98;;
16866;SDS011;8550;52.596;13.320;2024-03-02T23:13:54;22.77;;;10.40;;
16866;SDS011;8550;52.596;13.320;2024-03-02T23:18:56;20.73;;;9.13;;
16866;SDS011;8550;52.596;13.320;2024-03-02T23:23:59;21.05;;;10.63;;
16866;SDS011;8550;52.596;13.320;2024-03-02T23:29:01;21.67;;;10.50;;
16866;SDS011;8550;52.596;13.320;2024-03-02T23:34:03;20.30;;;9.23;;
16866;SDS011;8550;52.596;13.320;2024-03-02T23:39:06;29.45;;;10.35;;
16866;SDS011;8550;52.596;13.320;2024-03-02T23:44:10;23.98;;;11.88;;
16866;SDS011;8550;52.596;13.320;2024-03-02T23:49:13;24.63;;;11.33;;
16866;SDS011;8550;52.596;13.320;2024-03-02T23:54:17;25.13;;;11.35;;
16866;SDS011;8550;52.596;13.320;2024-03-02T23:59:19;24.73;;;11.40;;
